Time;durP1;ratioP1;P1;durP2;ratioP2;P2;SDS_P1;SDS_P2;PMS_P1;PMS_P2;Temp;Humidity;BMP_temperature;BMP_pressure;BME280_temperature;BME280_humidity;BME280_pressure;Samples;Min_cycle;Max_cycle;Signal;HPM_P1;HPM_P2
2023/06/05 00:01:58;;;;;;;0.30;0.30;;;15.30;85.60;;;;;;4435835;32;20129;-77
2023/06/05 00:04:24;;;;;;;0.40;0.40;;;15.40;85.20;;;;;;4433104;32;20097;-78
2023/06/05 00:06:51;;;;;;;0.35;0.35;;;15.50;85.10;;;;;;4436418;32;20065;-78
2023/06/05 00:09:17;;;;;;;0.82;0.70;;;15.50;85.20;;;;;;4432789;32;20150;-78
2023/06/05 00:11:42;;;;;;;0.52;0.52;;;15.50;85.30;;;;;;4437292;32;20192;-77
2023/06/05 00:14:08;;;;;;;0.45;0.45;;;15.50;85.20;;;;;;4432103;32;20109;-77
2023/06/05 00:16:34;;;;;;;0.57;0.47;;;15.50;85.50;;;;;;4434558;32;20667;-76
2023/06/05 00:19:00;;;;;;;0.35;0.35;;;15.50;86.30;;;;;;4435291;32;20165;-79
2023/06/05 00:21:26;;;;;;;0.50;0.50;;;15.50;86.70;;;;;;4434856;32;20062;-76
2023/06/05 00:23:51;;;;;;;0.30;0.30;;;15.50;86.30;;;;;;4434677;32;20057;-77
2023/06/05 00:26:17;;;;;;;0.50;0.50;;;15.40;86.70;;;;;;4435395;32;20101;-79
2023/06/05 00:28:42;;;;;;;0.50;0.50;;;15.40;86.50;;;;;;4434045;32;20052;-77
2023/06/05 00:31:08;;;;;;;2.60;0.95;;;15.30;86.80;;;;;;4436241;32;20085;-76
2023/06/05 00:33:33;;;;;;;0.20;0.20;;;15.30;86.90;;;;;;4435145;32;20160;-77
2023/06/05 00:35:59;;;;;;;0.22;0.22;;;15.20;87.30;;;;;;4433399;32;20082;-79
2023/06/05 00:38:25;;;;;;;0.30;0.30;;;15.10;87.10;;;;;;4438888;32;20093;-77
2023/06/05 00:40:50;;;;;;;0.43;0.43;;;15.10;87.30;;;;;;4438297;32;20141;-77
2023/06/05 00:43:16;;;;;;;0.43;0.40;;;15.10;87.20;;;;;;4436684;32;20053;-77
2023/06/05 00:45:42;;;;;;;0.30;0.30;;;15.10;87.10;;;;;;4435961;32;20069;-79
2023/06/05 00:48:07;;;;;;;0.50;0.50;;;15.10;87.30;;;;;;4433413;32;20175;-78
2023/06/05 00:50:34;;;;;;;0.32;0.32;;;15.10;87.50;;;;;;4435386;32;20098;-77
2023/06/05 00:53:01;;;;;;;0.73;0.50;;;15.00;87.60;;;;;;4432518;32;20127;-78
2023/06/05 00:55:27;;;;;;;0.30;0.30;;;15.00;87.50;;;;;;4431972;32;20080;-78
2023/06/05 00:57:54;;;;;;;7.03;0.50;;;15.00;87.50;;;;;;4435300;32;20815;-78
2023/06/05 01:00:19;;;;;;;0.22;0.22;;;15.00;87.40;;;;;;4436732;32;20066;-79
2023/06/05 01:02:45;;;;;;;0.37;0.37;;;14.90;87.20;;;;;;4437950;32;20092;-79
2023/06/05 01:05:12;;;;;;;0.30;0.30;;;14.90;87.80;;;;;;4437429;32;20084;-78
2023/06/05 01:07:38;;;;;;;0.40;0.40;;;14.90;87.90;;;;;;4437065;32;20081;-78
2023/06/05 01:10:06;;;;;;;0.30;0.30;;;14.90;88.00;;;;;;4431691;32;20097;-79
2023/06/05 01:13:11;;;;;;;0.60;0.30;;;14.90;88.30;;;;;;4435383;32;20081;-78
2023/06/05 01:15:38;;;;;;;5.32;1.17;;;14.80;88.70;;;;;;4425629;32;20113;-78
2023/06/05 01:18:04;;;;;;;0.20;0.20;;;14.70;89.10;;;;;;4438771;32;20093;-79
2023/06/05 01:20:34;;;;;;;0.22;0.22;;;14.80;89.10;;;;;;4435989;32;20094;-78
2023/06/05 01:23:01;;;;;;;0.45;0.45;;;14.70;89.40;;;;;;4435321;32;20560;-79
2023/06/05 01:25:28;;;;;;;0.35;0.35;;;14.60;89.70;;;;;;4433871;32;20456;-79
2023/06/05 01:28:15;;;;;;;0.50;0.47;;;14.70;89.30;;;;;;4438264;32;20092;-77
2023/06/05 01:30:52;;;;;;;0.30;0.30;;;14.80;89.20;;;;;;4430525;32;20068;-77
2023/06/05 01:33:28;;;;;;;0.30;0.30;;;14.80;88.80;;;;;;4436115;32;20109;-79
2023/06/05 01:35:55;;;;;;;0.40;0.40;;;14.80;88.90;;;;;;4436055;32;20073;-79
2023/06/05 01:38:22;;;;;;;0.30;0.30;;;14.80;88.40;;;;;;4435983;32;20081;-78
2023/06/05 01:40:49;;;;;;;0.60;0.37;;;14.80;89.00;;;;;;4434236;32;20120;-79
2023/06/05 01:43:16;;;;;;;0.40;0.40;;;14.80;88.90;;;;;;4437643;32;20110;-78
2023/06/05 01:45:43;;;;;;;0.57;0.57;;;14.70;89.20;;;;;;4432907;32;20066;-78
2023/06/05 01:48:10;;;;;;;0.20;0.20;;;14.80;89.50;;;;;;4430439;32;20318;-77
2023/06/05 01:50:37;;;;;;;0.32;0.30;;;14.80;88.80;;;;;;4436129;32;20078;-77
2023/06/05 01:53:04;;;;;;;0.30;0.30;;;14.80;88.90;;;;;;4437367;32;20456;-78
2023/06/05 01:55:30;;;;;;;0.40;0.40;;;14.80;87.80;;;;;;4434121;32;20145;-78
2023/06/05 01:57:56;;;;;;;0.30;0.30;;;14.90;88.40;;;;;;4436168;32;20203;-78
2023/06/05 02:00:21;;;;;;;0.93;0.73;;;14.90;88.60;;;;;;4430888;32;20201;-77
2023/06/05 02:02:49;;;;;;;0.40;0.40;;;14.80;88.00;;;;;;4437341;32;20101;-79
2023/06/05 02:05:15;;;;;;;0.30;0.30;;;14.80;88.00;;;;;;4437917;32;20072;-75
2023/06/05 02:07:48;;;;;;;0.75;0.62;;;14.90;86.60;;;;;;4435321;32;20111;-77
2023/06/05 02:10:14;;;;;;;0.52;0.45;;;14.90;86.90;;;;;;4437047;32;20089;-78
2023/06/05 02:12:42;;;;;;;0.68;0.68;;;14.90;88.20;;;;;;4437200;32;20516;-77
2023/06/05 02:15:12;;;;;;;0.90;0.85;;;14.90;87.30;;;;;;4435524;32;20098;-78
2023/06/05 02:17:39;;;;;;;0.30;0.30;;;14.90;87.20;;;;;;4432065;32;20088;-78
2023/06/05 02:20:05;;;;;;;0.20;0.20;;;14.90;87.50;;;;;;4431433;32;20065;-78
2023/06/05 02:22:30;;;;;;;0.47;0.47;;;15.00;87.20;;;;;;4438236;32;20080;-77
2023/06/05 02:24:56;;;;;;;0.30;0.30;;;15.00;87.50;;;;;;4437477;32;20616;-76
2023/06/05 02:27:24;;;;;;;0.30;0.30;;;15.00;87.80;;;;;;4436982;32;20069;-78
2023/06/05 02:29:50;;;;;;;2.30;1.50;;;14.90;87.30;;;;;;4436300;32;20069;-78
2023/06/05 02:32:15;;;;;;;0.35;0.35;;;14.90;87.80;;;;;;4437285;32;20064;-77
2023/06/05 02:34:41;;;;;;;0.20;0.20;;;14.80;87.80;;;;;;4436361;32;20451;-78
2023/06/05 02:37:08;;;;;;;0.43;0.32;;;14.80;87.70;;;;;;4434995;32;21173;-77
2023/06/05 02:39:33;;;;;;;0.30;0.30;;;14.70;87.80;;;;;;4433760;32;20414;-79
2023/06/05 02:41:59;;;;;;;0.30;0.30;;;14.70;88.20;;;;;;4435298;32;20096;-75
2023/06/05 02:44:24;;;;;;;0.43;0.43;;;14.70;88.40;;;;;;4436228;32;20093;-76
2023/06/05 02:46:50;;;;;;;0.40;0.40;;;14.70;87.50;;;;;;4435868;32;20499;-77
2023/06/05 02:49:15;;;;;;;0.30;0.30;;;14.80;87.50;;;;;;4434360;32;20081;-77
2023/06/05 02:51:41;;;;;;;0.30;0.30;;;14.70;88.40;;;;;;4436133;32;20299;-77
2023/06/05 02:54:07;;;;;;;0.50;0.50;;;14.70;88.80;;;;;;4435737;32;20078;-77
2023/06/05 02:56:32;;;;;;;0.20;0.20;;;14.70;88.50;;;;;;4436221;32;20917;-78
2023/06/05 02:58:58;;;;;;;0.57;0.57;;;14.50;88.60;;;;;;4437737;32;20057;-77
2023/06/05 03:01:25;;;;;;;0.30;0.30;;;14.50;89.00;;;;;;4433171;32;20191;-78
2023/06/05 03:03:52;;;;;;;0.20;0.20;;;14.50;89.00;;;;;;4436056;32;20087;-78
2023/06/05 03:06:18;;;;;;;0.43;0.43;;;14.40;89.40;;;;;;4435045;32;20123;-75
2023/06/05 03:08:44;;;;;;;0.40;0.40;;;14.40;89.30;;;;;;4438821;32;20166;-79
2023/06/05 03:11:10;;;;;;;2.85;0.85;;;14.40;89.70;;;;;;4435506;32;21215;-79
2023/06/05 03:13:35;;;;;;;0.43;0.43;;;14.40;90.00;;;;;;4436549;32;20073;-79
2023/06/05 03:16:01;;;;;;;6.40;1.52;;;14.50;89.80;;;;;;4435109;32;20074;-77
2023/06/05 03:18:27;;;;;;;0.30;0.30;;;14.40;89.50;;;;;;4435001;32;20081;-78
2023/06/05 03:20:56;;;;;;;15.70;0.50;;;14.40;89.90;;;;;;4437576;32;20443;-77
2023/06/05 03:23:24;;;;;;;0.30;0.30;;;14.40;90.00;;;;;;4436060;32;20093;-79
2023/06/05 03:25:51;;;;;;;0.28;0.28;;;14.30;90.00;;;;;;4435525;32;20057;-77
2023/06/05 03:28:17;;;;;;;0.88;0.52;;;14.30;90.10;;;;;;4434259;32;20058;-78
2023/06/05 03:30:44;;;;;;;0.30;0.30;;;14.30;90.00;;;;;;4437305;32;20057;-77
2023/06/05 03:33:09;;;;;;;0.32;0.30;;;14.30;90.40;;;;;;4436208;32;20143;-78
2023/06/05 03:35:35;;;;;;;0.20;0.20;;;14.40;90.80;;;;;;4432574;32;20094;-77
2023/06/05 03:38:01;;;;;;;0.40;0.40;;;14.40;90.30;;;;;;4433272;32;20068;-78
2023/06/05 03:40:27;;;;;;;0.20;0.20;;;14.40;90.70;;;;;;4436296;32;20064;-78
2023/06/05 03:42:52;;;;;;;0.30;0.30;;;14.40;90.70;;;;;;4436624;32;20093;-78
2023/06/05 03:45:18;;;;;;;0.45;0.28;;;14.30;90.50;;;;;;4436102;32;20196;-77
2023/06/05 03:47:44;;;;;;;0.73;0.73;;;14.40;90.70;;;;;;4435584;32;20061;-79
2023/06/05 03:50:11;;;;;;;0.40;0.40;;;14.30;90.20;;;;;;4434256;32;20069;-76
2023/06/05 03:52:39;;;;;;;0.37;0.37;;;14.30;90.20;;;;;;4435420;32;20469;-79
2023/06/05 03:55:07;;;;;;;1.62;0.57;;;14.40;90.00;;;;;;4437382;32;20516;-78
2023/06/05 03:57:33;;;;;;;6.50;0.55;;;14.40;89.80;;;;;;4436544;32;20100;-78
2023/06/05 03:59:58;;;;;;;0.20;0.20;;;14.50;89.60;;;;;;4437736;32;20152;-79
2023/06/05 04:02:24;;;;;;;0.30;0.30;;;14.50;90.40;;;;;;4435580;32;20094;-79
2023/06/05 04:04:50;;;;;;;0.40;0.40;;;14.50;90.30;;;;;;4432984;32;20085;-79
2023/06/05 04:07:16;;;;;;;0.30;0.30;;;14.50;89.90;;;;;;4430991;32;20462;-79
2023/06/05 04:09:42;;;;;;;0.20;0.20;;;14.60;89.40;;;;;;4434623;32;20053;-78
2023/06/05 04:12:10;;;;;;;3.70;0.98;;;14.60;89.60;;;;;;4432184;32;20074;-79
2023/06/05 04:14:36;;;;;;;0.47;0.47;;;14.60;89.20;;;;;;4438957;32;20057;-78
2023/06/05 04:17:02;;;;;;;0.50;0.50;;;14.60;89.30;;;;;;4436668;32;20085;-78
2023/06/05 04:19:28;;;;;;;0.70;0.70;;;14.70;89.50;;;;;;4438288;32;20765;-78
2023/06/05 04:21:54;;;;;;;0.28;0.28;;;14.60;89.50;;;;;;4421589;32;20081;-77
2023/06/05 04:24:19;;;;;;;0.30;0.30;;;14.70;89.70;;;;;;4433839;32;20070;-79
2023/06/05 04:26:45;;;;;;;0.40;0.30;;;14.60;89.50;;;;;;4430515;32;20096;-76
2023/06/05 04:29:15;;;;;;;0.20;0.20;;;14.70;89.50;;;;;;4433990;32;20431;-80
2023/06/05 04:31:42;;;;;;;1.60;0.93;;;14.80;89.90;;;;;;4433929;32;20082;-77
2023/06/05 04:34:08;;;;;;;0.52;0.40;;;14.80;89.50;;;;;;4436066;32;20077;-79
2023/06/05 04:36:36;;;;;;;0.57;0.57;;;14.90;90.20;;;;;;4431588;32;20532;-79
2023/06/05 04:39:03;;;;;;;0.57;0.55;;;14.90;89.80;;;;;;4436392;32;20534;-78
2023/06/05 04:41:30;;;;;;;0.55;0.55;;;14.90;90.20;;;;;;4433928;32;20604;-79
2023/06/05 04:43:57;;;;;;;0.20;0.20;;;14.90;90.40;;;;;;4436611;32;20160;-79
2023/06/05 04:46:23;;;;;;;0.30;0.30;;;15.00;90.70;;;;;;4428914;32;20220;-79
2023/06/05 04:48:48;;;;;;;0.50;0.50;;;15.00;90.40;;;;;;4432012;32;20123;-79
2023/06/05 04:51:14;;;;;;;0.30;0.30;;;15.00;90.20;;;;;;4431944;32;20133;-79
2023/06/05 04:53:41;;;;;;;0.30;0.30;;;15.00;90.10;;;;;;4435590;32;20111;-78
2023/06/05 04:56:07;;;;;;;0.52;0.52;;;15.10;89.10;;;;;;4434872;32;20088;-77
2023/06/05 04:58:33;;;;;;;0.68;0.50;;;15.10;89.30;;;;;;4434881;32;20571;-79
2023/06/05 05:01:04;;;;;;;0.25;0.25;;;15.10;88.90;;;;;;4428904;32;20445;-78
2023/06/05 05:03:30;;;;;;;0.28;0.28;;;15.20;90.10;;;;;;4425609;32;20069;-78
2023/06/05 05:05:56;;;;;;;0.60;0.60;;;15.30;89.30;;;;;;4428471;32;20084;-79
2023/06/05 05:08:21;;;;;;;0.55;0.55;;;15.30;90.00;;;;;;4428694;32;20097;-79
2023/06/05 05:10:47;;;;;;;0.47;0.45;;;15.50;89.50;;;;;;4428935;32;20101;-78
2023/06/05 05:13:13;;;;;;;0.40;0.40;;;15.60;88.70;;;;;;4418049;32;20521;-79
2023/06/05 05:15:38;;;;;;;0.20;0.20;;;15.60;88.90;;;;;;4416815;32;20081;-77
2023/06/05 05:18:04;;;;;;;0.28;0.28;;;15.70;87.30;;;;;;4403574;32;20720;-77
2023/06/05 05:20:32;;;;;;;1.12;0.50;;;15.70;88.80;;;;;;4418603;32;20085;-78
2023/06/05 05:22:59;;;;;;;0.32;0.32;;;15.70;88.80;;;;;;4418490;32;20552;-78
2023/06/05 05:25:25;;;;;;;0.30;0.30;;;15.80;88.00;;;;;;4418382;32;20085;-79
2023/06/05 05:27:51;;;;;;;0.43;0.43;;;15.90;87.40;;;;;;4407920;32;20128;-77
2023/06/05 05:30:18;;;;;;;0.30;0.30;;;16.00;87.30;;;;;;4411264;32;20349;-78
2023/06/05 05:32:43;;;;;;;0.40;0.40;;;16.00;87.30;;;;;;4402756;32;20655;-77
2023/06/05 05:35:10;;;;;;;0.50;0.50;;;16.10;87.00;;;;;;4417386;32;20089;-78
2023/06/05 05:37:36;;;;;;;0.45;0.45;;;16.10;86.00;;;;;;4416511;32;20081;-78
2023/06/05 05:40:03;;;;;;;0.55;0.55;;;16.30;86.30;;;;;;4419793;32;20608;-77
2023/06/05 05:42:29;;;;;;;0.28;0.28;;;16.30;86.20;;;;;;4415965;32;20677;-78
2023/06/05 05:44:55;;;;;;;0.52;0.40;;;16.40;86.60;;;;;;4419056;32;20150;-77
2023/06/05 05:47:22;;;;;;;0.30;0.30;;;16.50;86.00;;;;;;4429956;32;20133;-79
2023/06/05 05:49:47;;;;;;;0.40;0.40;;;16.60;86.90;;;;;;4434672;32;20109;-79
2023/06/05 05:52:13;;;;;;;0.30;0.30;;;16.70;86.70;;;;;;4425491;32;20072;-78
2023/06/05 05:54:39;;;;;;;1.75;0.77;;;16.70;86.60;;;;;;4427354;32;20256;-78
2023/06/05 05:57:05;;;;;;;0.52;0.50;;;16.80;85.70;;;;;;4426440;32;20100;-79
2023/06/05 05:59:31;;;;;;;0.28;0.28;;;16.90;86.00;;;;;;4422668;32;20084;-77
2023/06/05 06:01:59;;;;;;;0.22;0.22;;;17.00;84.40;;;;;;4408034;32;20080;-77
2023/06/05 06:04:24;;;;;;;17.15;0.68;;;17.10;84.70;;;;;;4412638;32;21085;-77
2023/06/05 06:06:52;;;;;;;0.40;0.40;;;17.20;85.20;;;;;;4412098;32;20081;-77
2023/06/05 06:09:18;;;;;;;2.35;0.70;;;17.30;84.60;;;;;;4415414;32;20077;-77
2023/06/05 06:11:44;;;;;;;0.30;0.30;;;17.40;85.50;;;;;;4419009;32;20102;-77
2023/06/05 06:14:10;;;;;;;0.90;0.45;;;17.40;84.60;;;;;;4418524;32;20079;-77
2023/06/05 06:16:37;;;;;;;0.30;0.30;;;17.50;83.40;;;;;;4409348;32;20093;-75
2023/06/05 06:19:04;;;;;;;0.22;0.22;;;17.60;83.60;;;;;;4413610;32;20085;-76
2023/06/05 06:21:29;;;;;;;0.30;0.30;;;17.70;83.00;;;;;;4413484;32;20448;-77
2023/06/05 06:23:55;;;;;;;0.55;0.45;;;17.80;83.30;;;;;;4413095;32;20225;-75
2023/06/05 06:26:21;;;;;;;0.62;0.62;;;18.00;83.10;;;;;;4412730;32;20654;-75
2023/06/05 06:28:47;;;;;;;0.32;0.32;;;18.10;81.60;;;;;;4400654;32;20080;-76
2023/06/05 06:31:13;;;;;;;0.50;0.50;;;18.20;81.90;;;;;;4399248;32;20208;-75
2023/06/05 06:33:39;;;;;;;0.22;0.22;;;18.30;80.20;;;;;;4397690;32;20105;-75
2023/06/05 06:36:04;;;;;;;1.55;0.65;;;18.40;79.30;;;;;;4400313;32;20553;-77
2023/06/05 06:38:31;;;;;;;0.40;0.40;;;18.50;80.20;;;;;;4408133;32;20064;-77
2023/06/05 06:40:58;;;;;;;0.30;0.30;;;18.60;80.50;;;;;;4402445;32;20187;-78
2023/06/05 06:43:24;;;;;;;0.30;0.30;;;18.70;79.80;;;;;;4414672;32;20109;-76
2023/06/05 06:45:50;;;;;;;0.30;0.30;;;18.80;79.10;;;;;;4406329;32;20101;-77
2023/06/05 06:48:18;;;;;;;2.28;0.57;;;18.90;77.70;;;;;;4410544;32;20078;-77
2023/06/05 06:50:44;;;;;;;0.60;0.60;;;19.00;77.80;;;;;;4404415;32;20510;-77
2023/06/05 06:53:09;;;;;;;0.57;0.57;;;19.10;78.50;;;;;;4401600;32;20391;-78
2023/06/05 06:55:35;;;;;;;0.30;0.30;;;19.10;78.60;;;;;;4402020;32;20085;-77
2023/06/05 06:58:01;;;;;;;0.95;0.40;;;19.20;78.10;;;;;;4402204;32;20148;-77
2023/06/05 07:00:26;;;;;;;0.30;0.30;;;19.30;77.70;;;;;;4405151;32;20077;-77
2023/06/05 07:02:52;;;;;;;4.20;0.93;;;19.40;77.00;;;;;;4408540;32;20101;-78
2023/06/05 07:05:19;;;;;;;0.50;0.50;;;19.50;76.20;;;;;;4407069;32;20113;-77
2023/06/05 07:07:45;;;;;;;2.17;0.82;;;19.60;76.10;;;;;;4399222;32;20142;-77
2023/06/05 07:10:11;;;;;;;0.52;0.43;;;19.70;76.30;;;;;;4375540;32;20097;-77
2023/06/05 07:12:37;;;;;;;0.60;0.60;;;19.90;74.90;;;;;;4371042;32;20113;-77
2023/06/05 07:15:03;;;;;;;0.65;0.65;;;20.00;73.70;;;;;;4384115;32;20105;-76
2023/06/05 07:17:30;;;;;;;0.30;0.30;;;20.00;74.70;;;;;;4384675;32;20260;-76
2023/06/05 07:19:57;;;;;;;0.32;0.32;;;20.10;72.30;;;;;;4404298;32;20189;-75
2023/06/05 07:22:24;;;;;;;0.25;0.25;;;20.20;71.30;;;;;;4411517;32;20069;-76
2023/06/05 07:24:53;;;;;;;0.20;0.20;;;20.40;69.50;;;;;;4405596;32;20065;-77
2023/06/05 07:27:18;;;;;;;0.22;0.22;;;20.50;69.30;;;;;;4412249;32;20093;-77
2023/06/05 07:29:45;;;;;;;19.90;0.60;;;20.60;70.90;;;;;;4404719;32;20571;-78
2023/06/05 07:32:10;;;;;;;0.30;0.30;;;20.70;68.90;;;;;;4400989;32;20105;-77
2023/06/05 07:34:36;;;;;;;0.30;0.30;;;20.80;69.00;;;;;;4403038;32;20090;-77
2023/06/05 07:37:03;;;;;;;0.50;0.50;;;21.00;69.70;;;;;;4406061;32;20069;-79
2023/06/05 07:39:28;;;;;;;0.45;0.45;;;21.10;67.30;;;;;;4409696;32;20877;-79
2023/06/05 07:41:54;;;;;;;0.30;0.30;;;21.20;65.70;;;;;;4412150;32;20089;-77
2023/06/05 07:44:21;;;;;;;0.30;0.30;;;21.30;66.30;;;;;;4416549;32;20077;-80
2023/06/05 07:46:48;;;;;;;0.62;0.55;;;21.50;67.20;;;;;;4411691;32;20088;-80
2023/06/05 07:49:16;;;;;;;0.30;0.30;;;21.60;66.60;;;;;;4394797;32;20113;-77
2023/06/05 07:51:43;;;;;;;1.20;0.60;;;21.70;66.30;;;;;;4404488;32;20089;-79
2023/06/05 07:54:10;;;;;;;0.30;0.30;;;21.70;66.10;;;;;;4399014;32;20105;-77
2023/06/05 07:56:36;;;;;;;0.30;0.30;;;21.70;66.60;;;;;;4411872;32;20129;-76
2023/06/05 07:59:02;;;;;;;0.20;0.20;;;22.00;66.40;;;;;;4410954;32;20085;-78
2023/06/05 08:01:29;;;;;;;0.20;0.20;;;22.10;63.10;;;;;;4399181;32;20553;-75
2023/06/05 08:03:55;;;;;;;0.20;0.20;;;22.30;63.40;;;;;;4422214;26;21068;-67
2023/06/05 08:06:21;;;;;;;0.35;0.30;;;22.40;61.20;;;;;;4407154;32;20134;-68
2023/06/05 08:08:46;;;;;;;0.47;0.35;;;22.50;62.00;;;;;;4409297;32;20349;-68
2023/06/05 08:11:12;;;;;;;0.20;0.20;;;22.80;62.20;;;;;;4411829;32;20714;-65
2023/06/05 08:13:38;;;;;;;0.65;0.55;;;22.90;62.00;;;;;;4397075;32;20141;-67
2023/06/05 08:16:04;;;;;;;0.22;0.22;;;23.00;61.20;;;;;;4400427;32;20138;-68
2023/06/05 08:18:29;;;;;;;0.20;0.20;;;23.00;62.50;;;;;;4396440;32;20234;-67
2023/06/05 08:20:55;;;;;;;0.20;0.20;;;23.10;61.10;;;;;;4406720;32;20927;-68
2023/06/05 08:23:20;;;;;;;0.52;0.52;;;23.20;60.80;;;;;;4407748;32;20119;-68
2023/06/05 08:25:48;;;;;;;0.20;0.20;;;23.20;60.40;;;;;;4421101;32;20462;-68
2023/06/05 08:28:15;;;;;;;1.20;0.70;;;23.30;61.20;;;;;;4404487;32;20298;-67
2023/06/05 08:30:40;;;;;;;0.25;0.25;;;23.40;60.80;;;;;;4400931;32;22581;-66
2023/06/05 08:33:06;;;;;;;0.10;0.10;;;23.50;59.70;;;;;;4401074;32;20077;-68
2023/06/05 08:35:31;;;;;;;2.45;1.05;;;23.40;59.10;;;;;;4406279;32;20092;-67
2023/06/05 08:37:58;;;;;;;0.43;0.43;;;23.50;59.80;;;;;;4402592;32;20777;-67
2023/06/05 08:40:28;;;;;;;0.32;0.32;;;23.60;59.00;;;;;;4408981;32;20097;-68
2023/06/05 08:42:53;;;;;;;0.65;0.32;;;23.70;59.00;;;;;;4407502;32;20097;-68
2023/06/05 08:45:19;;;;;;;0.22;0.22;;;23.70;57.70;;;;;;4397781;32;20101;-67
2023/06/05 08:47:50;;;;;;;0.17;0.17;;;23.60;58.40;;;;;;4400264;32;20688;-67
2023/06/05 08:50:16;;;;;;;0.80;0.47;;;23.70;57.30;;;;;;4407756;32;20608;-66
2023/06/05 08:52:43;;;;;;;8.93;0.40;;;23.70;58.10;;;;;;4400580;32;20670;-68
2023/06/05 08:55:10;;;;;;;0.20;0.20;;;23.70;58.20;;;;;;4391312;32;20156;-68
2023/06/05 08:57:38;;;;;;;0.20;0.20;;;23.80;57.00;;;;;;4402907;32;21757;-67
2023/06/05 09:00:07;;;;;;;5.05;0.40;;;23.70;57.00;;;;;;4403545;32;20804;-65
2023/06/05 09:02:33;;;;;;;0.35;0.35;;;23.70;57.50;;;;;;4398720;32;20101;-64
2023/06/05 09:05:00;;;;;;;0.35;0.35;;;23.80;57.60;;;;;;4411145;32;20118;-66
2023/06/05 09:07:29;;;;;;;0.22;0.22;;;23.80;56.00;;;;;;4403073;32;20104;-64
2023/06/05 09:09:54;;;;;;;0.20;0.20;;;23.70;57.00;;;;;;4401008;32;20751;-66
2023/06/05 09:12:20;;;;;;;3.92;0.52;;;23.70;56.60;;;;;;4407807;32;20089;-68
2023/06/05 09:14:45;;;;;;;1.77;1.00;;;23.90;57.20;;;;;;4406924;32;20127;-65
2023/06/05 09:17:13;;;;;;;0.20;0.20;;;23.90;57.10;;;;;;4418257;32;20106;-66
2023/06/05 09:19:42;;;;;;;0.35;0.32;;;24.00;55.20;;;;;;4410104;32;21236;-66
2023/06/05 09:22:09;;;;;;;0.10;0.10;;;24.10;57.50;;;;;;4395894;32;20116;-65
2023/06/05 09:24:35;;;;;;;0.20;0.20;;;24.10;55.40;;;;;;4401948;32;20073;-66
2023/06/05 09:27:08;;;;;;;0.30;0.30;;;24.20;56.60;;;;;;4408454;32;20072;-68
2023/06/05 09:29:36;;;;;;;0.40;0.40;;;24.40;56.20;;;;;;4402776;32;20088;-66
2023/06/05 09:32:07;;;;;;;0.60;0.60;;;24.50;56.10;;;;;;4387077;32;21109;-68
2023/06/05 09:34:35;;;;;;;0.20;0.20;;;24.50;54.70;;;;;;4393870;32;20199;-66
2023/06/05 09:37:03;;;;;;;0.20;0.20;;;24.50;54.80;;;;;;4410442;32;20143;-65
2023/06/05 09:39:30;;;;;;;0.22;0.22;;;24.50;54.80;;;;;;4402964;32;20097;-66
2023/06/05 09:41:57;;;;;;;0.20;0.20;;;24.30;55.50;;;;;;4404766;32;20081;-68
2023/06/05 09:44:24;;;;;;;0.22;0.22;;;24.40;55.50;;;;;;4390377;32;20216;-66
2023/06/05 09:47:05;;;;;;;0.80;0.60;;;24.40;55.70;;;;;;4394541;32;20425;-64
2023/06/05 09:49:33;;;;;;;0.20;0.20;;;24.10;54.80;;;;;;4405959;32;20331;-63
2023/06/05 09:52:00;;;;;;;0.10;0.10;;;24.30;55.90;;;;;;4399804;32;20206;-67
2023/06/05 09:54:28;;;;;;;1.00;0.68;;;24.50;56.30;;;;;;4403772;32;20120;-68
2023/06/05 09:56:57;;;;;;;0.35;0.35;;;24.80;55.90;;;;;;4417004;32;20589;-64
2023/06/05 09:59:29;;;;;;;1.25;0.82;;;25.10;55.20;;;;;;4400169;32;20108;-65
2023/06/05 10:01:56;;;;;;;0.95;0.45;;;25.20;54.60;;;;;;4398361;32;20109;-61
2023/06/05 10:04:23;;;;;;;8.52;1.23;;;25.10;54.90;;;;;;4398486;32;20560;-65
2023/06/05 10:06:52;;;;;;;0.17;0.17;;;25.30;55.90;;;;;;4392701;32;20092;-64
2023/06/05 10:09:18;;;;;;;1.65;0.73;;;25.30;54.70;;;;;;4404877;32;20212;-67
2023/06/05 10:11:47;;;;;;;0.20;0.20;;;25.20;54.90;;;;;;4399848;32;20109;-65
2023/06/05 10:14:15;;;;;;;9.95;0.28;;;25.40;55.80;;;;;;4383837;32;20143;-64
2023/06/05 10:16:42;;;;;;;0.85;0.52;;;25.70;54.10;;;;;;4392208;32;21310;-67
2023/06/05 10:19:09;;;;;;;0.40;0.40;;;25.70;54.60;;;;;;4391328;32;20380;-65
2023/06/05 10:21:35;;;;;;;1.02;0.60;;;25.70;55.40;;;;;;4391799;32;20180;-66
2023/06/05 10:24:14;;;;;;;0.10;0.10;;;25.90;54.60;;;;;;4408264;32;20113;-65
2023/06/05 10:27:17;;;;;;;0.20;0.20;;;26.10;54.50;;;;;;4393730;32;20797;-65
2023/06/05 10:30:19;;;;;;;0.22;0.22;;;26.40;55.10;;;;;;4401389;32;20173;-64
2023/06/05 10:33:12;;;;;;;2.08;1.10;;;26.60;53.30;;;;;;4394089;32;20683;-63
2023/06/05 10:36:00;;;;;;;0.20;0.20;;;26.50;53.60;;;;;;4406590;32;20137;-64
2023/06/05 10:38:27;;;;;;;0.40;0.40;;;26.50;52.70;;;;;;4398379;32;20066;-65
2023/06/05 10:40:55;;;;;;;0.22;0.22;;;26.70;52.50;;;;;;4412652;32;20433;-65
2023/06/05 10:43:49;;;;;;;0.10;0.10;;;26.70;53.50;;;;;;4411512;32;20330;-65
2023/06/05 10:46:32;;;;;;;21.23;0.90;;;26.80;51.50;;;;;;4405703;32;20544;-65
2023/06/05 10:49:17;;;;;;;0.10;0.10;;;26.80;51.80;;;;;;4396449;32;20089;-65
2023/06/05 10:51:44;;;;;;;0.22;0.22;;;27.00;53.00;;;;;;4382916;32;21074;-64
2023/06/05 10:54:15;;;;;;;0.40;0.40;;;27.20;52.00;;;;;;4400568;32;20203;-63
2023/06/05 10:57:03;;;;;;;7.85;1.45;;;27.20;53.10;;;;;;4389238;32;20126;-66
2023/06/05 10:59:32;;;;;;;0.20;0.20;;;27.60;52.20;;;;;;4375818;32;20089;-65
2023/06/05 11:02:08;;;;;;;0.30;0.30;;;27.90;50.60;;;;;;4397370;32;20477;-65
2023/06/05 11:04:46;;;;;;;0.20;0.20;;;28.10;50.40;;;;;;4394569;32;20155;-65
2023/06/05 11:07:18;;;;;;;0.30;0.30;;;28.10;51.10;;;;;;4403408;32;20165;-63
2023/06/05 11:10:05;;;;;;;0.10;0.10;;;28.20;50.80;;;;;;4372631;32;22003;-65
2023/06/05 11:12:52;;;;;;;0.20;0.20;;;28.30;49.80;;;;;;4382500;32;20109;-66
2023/06/05 11:15:38;;;;;;;0.25;0.20;;;28.40;49.60;;;;;;4391835;32;20195;-65
2023/06/05 11:18:28;;;;;;;0.17;0.17;;;28.70;49.90;;;;;;4380863;32;20096;-65
2023/06/05 11:20:55;;;;;;;1.40;0.65;;;29.10;51.00;;;;;;4378364;32;20823;-66
2023/06/05 11:23:21;;;;;;;0.20;0.20;;;29.30;51.00;;;;;;4386641;32;20798;-64
2023/06/05 11:25:48;;;;;;;0.30;0.30;;;29.40;48.90;;;;;;4403887;32;20086;-64
2023/06/05 11:28:34;;;;;;;0.52;0.30;;;29.40;49.70;;;;;;4392570;32;20307;-65
2023/06/05 11:31:00;;;;;;;0.10;0.10;;;29.40;48.10;;;;;;4392448;32;20789;-65
2023/06/05 11:33:29;;;;;;;0.13;0.13;;;29.30;48.50;;;;;;4392559;32;20152;-63
2023/06/05 11:36:00;;;;;;;0.08;0.08;;;29.50;49.20;;;;;;4398697;32;20100;-63
2023/06/05 11:38:26;;;;;;;0.00;0.00;;;29.50;49.60;;;;;;4396961;32;20782;-66
2023/06/05 11:40:52;;;;;;;0.20;0.20;;;29.70;48.70;;;;;;4395774;32;20357;-64
2023/06/05 11:43:18;;;;;;;0.20;0.20;;;30.00;48.50;;;;;;4388481;32;20073;-66
2023/06/05 11:45:53;;;;;;;0.43;0.10;;;30.10;48.30;;;;;;4371368;32;97217;-65
2023/06/05 11:48:19;;;;;;;0.35;0.30;;;29.90;48.70;;;;;;4391156;32;20318;-64
2023/06/05 11:50:55;;;;;;;0.90;0.55;;;29.80;48.50;;;;;;4383458;32;20101;-65
2023/06/05 11:53:21;;;;;;;0.05;0.05;;;29.90;48.20;;;;;;4397362;32;20073;-65
2023/06/05 11:58:25;;;;;;;0.10;0.10;;;30.40;47.40;;;;;;4407570;32;20084;-64
2023/06/05 12:00:52;;;;;;;0.10;0.10;;;30.50;47.00;;;;;;4410578;32;20170;-67
2023/06/05 12:03:20;;;;;;;0.13;0.13;;;31.10;47.10;;;;;;4405592;32;20088;-67
2023/06/05 12:05:48;;;;;;;0.28;0.10;;;31.50;46.60;;;;;;4412637;32;20085;-68
2023/06/05 12:08:32;;;;;;;0.00;0.00;;;32.00;46.20;;;;;;4398523;32;20081;-65
2023/06/05 12:11:00;;;;;;;0.10;0.10;;;32.00;45.30;;;;;;4406798;32;20127;-67
2023/06/05 12:13:52;;;;;;;0.45;0.32;;;32.00;45.20;;;;;;4407962;32;20405;-68
2023/06/05 12:16:19;;;;;;;1.90;0.30;;;31.90;44.50;;;;;;4401203;32;20614;-68
2023/06/05 12:18:46;;;;;;;0.00;0.00;;;31.70;44.80;;;;;;4409522;32;21605;-68
2023/06/05 12:21:22;;;;;;;0.00;0.00;;;31.50;44.40;;;;;;4403636;32;20188;-65
2023/06/05 12:23:47;;;;;;;0.00;0.00;;;31.30;45.30;;;;;;4396011;32;20124;-65
2023/06/05 12:26:15;;;;;;;0.00;0.00;;;31.90;44.90;;;;;;4403870;32;20078;-68
2023/06/05 12:28:42;;;;;;;0.52;0.30;;;32.40;44.30;;;;;;4400448;32;20081;-67
2023/06/05 12:31:07;;;;;;;1.55;0.20;;;32.40;43.50;;;;;;4409769;32;20124;-65
2023/06/05 12:33:45;;;;;;;0.10;0.10;;;32.20;43.70;;;;;;4394466;32;20256;-69
2023/06/05 12:36:10;;;;;;;0.10;0.10;;;32.40;44.30;;;;;;4404302;32;20331;-67
2023/06/05 12:38:38;;;;;;;0.05;0.05;;;32.80;43.40;;;;;;4414481;32;20574;-67
2023/06/05 12:41:06;;;;;;;0.05;0.05;;;32.70;42.60;;;;;;4410239;32;20085;-67
2023/06/05 12:43:32;;;;;;;7.15;1.45;;;32.70;43.10;;;;;;4415071;32;20675;-67
2023/06/05 12:45:58;;;;;;;0.17;0.17;;;32.90;42.60;;;;;;4418700;32;20152;-67
2023/06/05 12:48:23;;;;;;;0.10;0.10;;;32.30;43.00;;;;;;4415982;32;20112;-67
2023/06/05 12:50:50;;;;;;;0.13;0.13;;;32.10;43.50;;;;;;4423077;32;20076;-68
2023/06/05 12:53:15;;;;;;;0.73;0.47;;;32.30;43.10;;;;;;4419476;32;20100;-68